Webcam Rollhalt 06

Webcam Rollhalt 24

 

Flugplatz - Wetter - Augsburg

[Quelle: ADDS]
METAR
EDMA 040720Z 04006KT 340V090 8000 NSC M03/M04 Q0991 =
EDMA 040552Z 0406/0415 09006KT 9999 SCT045
TAF
EDMA 040552Z 0406/0415 09006KT 9999 SCT045 =
SR / SS: 06:51 / 15:24 UTC (Augsburg 2020-12-04)

Flugplatz - Wetter - Laupheim

[Quelle: ADDS]
METAR
ETHL 040720Z 02002KT 3800 BR FEW008 BKN070 M03/M04 Q0990 GRN GRN =
ETHL 040520Z 0406/0415 03005KT 4500 BR BKN050 BKN100 BECMG 0408/0410 06007KT 8000 NSW SCT050 BKN120
TAF
ETHL 040520Z 0406/0415 03005KT 4500 BR BKN050 BKN100 BECMG 0408/0410 06007KT 8000 NSW SCT050 BKN120 =
SR / SS: 06:55 / 15:29 UTC (Laupheim 2020-12-04)

Flugplatz - Wetter - Memmingen

[Quelle: ADDS]
METAR
EDJA 040720Z VRB02KT CAVOK M02/M03 Q0990 =
EDJA 040500Z 0406/0415 VRB03KT CAVOK BECMG 0406/0408 09006KT BECMG 0414/0415 28004KT
TAF
EDJA 040500Z 0406/0415 VRB03KT CAVOK BECMG 0406/0408 09006KT BECMG 0414/0415 28004KT =
SR / SS: 06:50 / 15:29 UTC (Memmingen 2020-12-04)

Flugplatz - Wetter - Neuburg/Donau

[Quelle: ADDS]
METAR
ETSN 040720Z 07004KT 3000 BR BKN004 BKN090 M03/M04 Q0993 YLO YLO BECMG WHT =
AMD ETSN 040644Z 0406/0415 04005KT 3700 BR BKN005 BKN080 BECMG 0407/0409 06008KT 5000 BR SCT007 BKN090 BECMG 0409/0411 06008KT 8000 NSW BKN090 BY ETGL
TAF
AMD ETSN 040644Z 0406/0415 04005KT 3700 BR BKN005 BKN080 BECMG 0407/0409 06008KT 5000 BR SCT007 BKN090 BECMG 0409/0411 06008KT 8000 NSW BKN090 BY ETGL =
SR / SS: 06:49 / 15:21 UTC (Neuburg 2020-12-04)

Flugplatz - Wetter - Stuttgart

[Quelle: ADDS]
METAR
EDDS 040720Z VRB02KT 9999 SCT040 SCT049 01/M02 Q0990 NOSIG =
EDDS 040500Z 0406/0506 VRB02KT CAVOK TEMPO 0422/0506 2500 SNRA BKN009
TAF
EDDS 040500Z 0406/0506 VRB02KT CAVOK TEMPO 0422/0506 2500 SNRA BKN009 =
SR / SS: 06:57 / 15:29 UTC (Stuttgart 2020-12-04)

Flugplatz - Wetter - Niederstetten

[Quelle: ADDS]
METAR
ETHN 040720Z 13010KT 9999 BKN040 OVC080 M01/M03 Q0990 BLU BLU =
ETHN 040518Z 0406/0415 14010KT 9999 NSW OVC030 PROB30 0406/0409 12012KT 6000 -FZRA OVC015
TAF
ETHN 040518Z 0406/0415 14010KT 9999 NSW OVC030 PROB30 0406/0409 12012KT 6000 -FZRA OVC015 =
SR / SS: 06:59 / 15:24 UTC (Niederstetten 2020-12-04)